createdAt,value
2023-05-18T00:01:23.122Z,14.41
2023-05-18T00:03:50.062Z,14.39
2023-05-18T00:06:17.772Z,14.37
2023-05-18T00:08:44.626Z,14.43
2023-05-18T00:11:11.586Z,14.40
2023-05-18T00:13:38.511Z,14.36
2023-05-18T00:16:05.454Z,14.30
2023-05-18T00:18:34.454Z,14.38
2023-05-18T00:21:02.429Z,14.45
2023-05-18T00:23:31.190Z,14.40
2023-05-18T00:26:02.396Z,14.34
2023-05-18T00:28:29.634Z,14.50
2023-05-18T00:30:57.056Z,14.60
2023-05-18T00:33:23.962Z,14.51
2023-05-18T00:35:50.842Z,14.44
2023-05-18T00:38:18.041Z,14.32
2023-05-18T00:40:45.042Z,14.42
2023-05-18T00:43:12.019Z,14.32
2023-05-18T00:45:39.039Z,14.27
2023-05-18T00:48:06.376Z,14.44
2023-05-18T00:50:33.368Z,14.42
2023-05-18T00:53:00.416Z,14.57
2023-05-18T00:55:28.685Z,14.52
2023-05-18T00:57:57.033Z,14.33
2023-05-18T01:00:24.566Z,14.33
2023-05-18T01:02:51.907Z,14.45
2023-05-18T01:05:20.288Z,14.53
2023-05-18T01:07:48.141Z,14.35
2023-05-18T01:10:16.963Z,14.33
2023-05-18T01:12:49.726Z,14.20
2023-05-18T01:15:19.368Z,14.30
2023-05-18T01:18:05.377Z,14.31
2023-05-18T01:20:39.741Z,14.33
2023-05-18T01:23:25.745Z,14.32
2023-05-18T01:25:55.421Z,14.24
2023-05-18T01:28:30.548Z,14.27
2023-05-18T01:30:58.155Z,14.33
2023-05-18T01:33:25.578Z,14.20
2023-05-18T01:35:52.864Z,14.35
2023-05-18T01:38:27.986Z,14.40
2023-05-18T01:41:07.197Z,14.41
2023-05-18T01:43:36.572Z,14.45
2023-05-18T01:46:22.369Z,14.50
2023-05-18T01:48:52.744Z,14.32
2023-05-18T01:51:21.578Z,14.14
2023-05-18T01:53:59.732Z,14.07
2023-05-18T01:56:28.050Z,14.02
2023-05-18T01:58:55.079Z,14.17
2023-05-18T02:01:23.199Z,14.11
2023-05-18T02:03:51.715Z,14.12
2023-05-18T02:06:18.751Z,14.10
2023-05-18T02:08:45.660Z,14.13
2023-05-18T02:11:12.605Z,14.12
2023-05-18T02:13:39.433Z,14.12
2023-05-18T02:16:06.766Z,14.11
2023-05-18T02:18:36.732Z,14.24
2023-05-18T02:21:04.414Z,14.05
2023-05-18T02:23:31.926Z,14.07
2023-05-18T02:25:59.206Z,14.13
2023-05-18T02:28:26.144Z,14.23
2023-05-18T02:30:53.137Z,14.16
2023-05-18T02:33:26.495Z,14.23
2023-05-18T02:35:53.749Z,14.17
2023-05-18T02:38:21.442Z,14.13
2023-05-18T02:40:48.610Z,14.11
2023-05-18T02:43:15.810Z,14.14
2023-05-18T02:45:42.698Z,14.01
2023-05-18T02:48:09.642Z,14.04
2023-05-18T02:50:36.596Z,13.99
2023-05-18T02:53:03.548Z,13.87
2023-05-18T02:55:30.673Z,14.01
2023-05-18T02:57:57.725Z,13.87
2023-05-18T03:00:24.766Z,13.98
2023-05-18T03:02:51.748Z,13.88
2023-05-18T03:05:23.894Z,13.75
2023-05-18T03:07:52.417Z,13.64
2023-05-18T03:10:19.920Z,13.86
2023-05-18T03:12:47.776Z,13.80
2023-05-18T03:15:16.377Z,13.86
2023-05-18T03:17:43.528Z,13.79
2023-05-18T03:20:11.683Z,13.99
2023-05-18T03:22:38.678Z,13.93
2023-05-18T03:25:06.245Z,13.77
2023-05-18T03:27:33.260Z,13.65
2023-05-18T03:30:00.623Z,13.61
2023-05-18T03:32:32.123Z,13.68
2023-05-18T03:35:01.293Z,13.65
2023-05-18T03:37:28.191Z,13.57
2023-05-18T03:39:59.811Z,13.55
2023-05-18T03:42:26.673Z,13.60
2023-05-18T03:44:53.472Z,13.68
2023-05-18T03:47:22.357Z,13.70
2023-05-18T03:49:49.228Z,13.87
2023-05-18T03:52:22.413Z,13.84
2023-05-18T03:54:50.057Z,13.84
2023-05-18T03:57:17.584Z,13.82
2023-05-18T03:59:47.496Z,13.79
2023-05-18T04:02:16.796Z,13.80
2023-05-18T04:04:46.223Z,13.91
2023-05-18T04:07:15.560Z,13.85
2023-05-18T04:09:44.298Z,13.72
2023-05-18T04:12:11.469Z,13.67
2023-05-18T04:14:39.006Z,13.69
2023-05-18T04:17:06.744Z,13.67
2023-05-18T04:19:34.564Z,13.59
2023-05-18T04:22:05.080Z,13.62
2023-05-18T04:24:35.560Z,13.72
2023-05-18T04:27:03.033Z,13.74
2023-05-18T04:29:30.079Z,13.78
2023-05-18T04:32:01.299Z,13.82
2023-05-18T04:34:29.535Z,13.80
2023-05-18T04:36:58.802Z,13.68
2023-05-18T04:39:25.980Z,13.58
2023-05-18T04:41:58.536Z,13.69
2023-05-18T04:44:27.669Z,13.74
2023-05-18T04:46:55.503Z,13.65
2023-05-18T04:49:23.124Z,13.60
2023-05-18T04:51:50.840Z,13.61
2023-05-18T04:54:17.660Z,13.60
2023-05-18T04:56:44.549Z,13.68
2023-05-18T04:59:11.434Z,13.60
2023-05-18T05:01:38.348Z,13.65
2023-05-18T05:04:06.499Z,13.65
2023-05-18T05:06:33.407Z,13.66
2023-05-18T05:09:00.276Z,13.63
2023-05-18T05:11:27.177Z,13.64
2023-05-18T05:13:54.143Z,13.54
2023-05-18T05:16:21.090Z,13.65
2023-05-18T05:18:48.043Z,13.72
2023-05-18T05:21:14.873Z,13.76
2023-05-18T05:23:41.776Z,13.76
2023-05-18T05:26:08.635Z,13.76
2023-05-18T05:28:35.584Z,13.78
2023-05-18T05:31:03.053Z,13.80
2023-05-18T05:33:29.962Z,13.81
2023-05-18T05:35:56.825Z,13.85
2023-05-18T05:38:23.751Z,13.78
2023-05-18T05:40:50.832Z,13.67
2023-05-18T05:43:17.749Z,13.69
2023-05-18T05:45:44.719Z,13.73
2023-05-18T05:48:13.675Z,13.82
2023-05-18T05:50:41.003Z,13.91
2023-05-18T05:53:07.926Z,13.80
2023-05-18T05:55:41.287Z,13.91
2023-05-18T05:58:09.421Z,13.90
2023-05-18T06:00:36.871Z,13.94
2023-05-18T06:03:04.380Z,13.97
2023-05-18T06:05:31.719Z,13.96
2023-05-18T06:07:58.769Z,13.98
2023-05-18T06:10:25.670Z,14.04
2023-05-18T06:12:52.584Z,14.10
2023-05-18T06:15:19.655Z,14.08
2023-05-18T06:17:47.259Z,14.10
2023-05-18T06:20:14.384Z,14.15
2023-05-18T06:22:41.322Z,14.14
2023-05-18T06:25:08.654Z,14.24
2023-05-18T06:27:35.551Z,14.35
2023-05-18T06:30:02.386Z,14.37
2023-05-18T06:32:29.459Z,14.38
2023-05-18T06:34:56.666Z,14.44
2023-05-18T06:37:23.534Z,14.44
2023-05-18T06:39:50.438Z,14.51
2023-05-18T06:42:17.447Z,14.51
2023-05-18T06:44:45.255Z,14.56
2023-05-18T06:47:12.087Z,14.62
2023-05-18T06:49:38.962Z,14.63
2023-05-18T06:52:06.263Z,14.69
2023-05-18T06:54:33.194Z,14.69
2023-05-18T06:57:00.146Z,14.74
2023-05-18T06:59:27.052Z,14.80
2023-05-18T07:01:54.009Z,14.85
2023-05-18T07:04:21.038Z,14.87
2023-05-18T07:06:47.946Z,14.93
2023-05-18T07:09:14.837Z,14.96
2023-05-18T07:11:41.676Z,15.00
2023-05-18T07:14:08.560Z,15.05
2023-05-18T07:16:35.740Z,15.13
2023-05-18T07:19:03.936Z,15.17
2023-05-18T07:21:31.525Z,15.20
2023-05-18T07:23:58.463Z,15.27
2023-05-18T07:26:25.417Z,15.30
2023-05-18T07:28:52.300Z,15.43
2023-05-18T07:31:21.682Z,15.52
2023-05-18T07:33:48.763Z,15.49
2023-05-18T07:36:15.714Z,15.52
2023-05-18T07:38:43.000Z,15.58
2023-05-18T07:41:10.392Z,15.62
2023-05-18T07:43:37.349Z,15.68
2023-05-18T07:46:04.286Z,15.76
2023-05-18T07:48:31.124Z,15.83
2023-05-18T07:50:58.700Z,15.82
2023-05-18T07:53:25.591Z,15.84
2023-05-18T07:55:52.671Z,15.86
2023-05-18T07:58:19.729Z,15.96
2023-05-18T08:00:46.557Z,16.04
2023-05-18T08:03:13.454Z,16.06
2023-05-18T08:05:40.458Z,16.11
2023-05-18T08:08:08.401Z,16.16
2023-05-18T08:10:35.261Z,16.21
2023-05-18T08:13:02.103Z,16.24
2023-05-18T08:15:29.188Z,16.32
2023-05-18T08:17:57.289Z,16.35
2023-05-18T08:20:25.807Z,16.39
2023-05-18T08:22:52.658Z,16.42
2023-05-18T08:25:19.595Z,16.46
2023-05-18T08:27:46.429Z,16.48
2023-05-18T08:30:13.701Z,16.53
2023-05-18T08:32:40.722Z,16.55
2023-05-18T08:35:11.581Z,16.59
2023-05-18T08:37:38.516Z,16.63
2023-05-18T08:40:08.267Z,16.65
2023-05-18T08:42:49.342Z,16.69
2023-05-18T08:45:48.177Z,16.75
2023-05-18T08:48:17.125Z,16.78
2023-05-18T08:50:44.672Z,16.81
2023-05-18T08:53:14.838Z,16.83
2023-05-18T08:55:44.425Z,16.87
2023-05-18T08:58:13.580Z,16.91
2023-05-18T09:00:40.614Z,16.95
2023-05-18T09:03:07.560Z,17.02
2023-05-18T09:05:35.056Z,17.08
2023-05-18T09:08:03.758Z,17.16
2023-05-18T09:10:32.893Z,17.21
2023-05-18T09:13:00.667Z,17.26
2023-05-18T09:15:28.304Z,17.30
2023-05-18T09:17:55.272Z,17.33
2023-05-18T09:20:22.515Z,17.36
2023-05-18T09:22:51.635Z,17.39
2023-05-18T09:25:19.139Z,17.43
2023-05-18T09:27:46.229Z,17.47
2023-05-18T09:30:13.476Z,17.51
2023-05-18T09:32:40.405Z,17.55
2023-05-18T09:35:08.564Z,17.58
2023-05-18T09:37:35.512Z,17.62
2023-05-18T09:40:10.836Z,17.67
2023-05-18T09:42:38.639Z,17.72
2023-05-18T09:45:26.942Z,17.74
2023-05-18T09:47:54.137Z,17.74
2023-05-18T09:50:22.054Z,17.75
2023-05-18T09:52:51.902Z,17.77
2023-05-18T09:55:19.907Z,17.79
2023-05-18T09:57:48.849Z,17.80
2023-05-18T10:00:17.181Z,17.80
2023-05-18T10:02:49.477Z,17.81
2023-05-18T10:05:36.282Z,17.81
2023-05-18T10:08:03.458Z,17.83
2023-05-18T10:10:30.545Z,17.84
2023-05-18T10:12:58.684Z,17.88
2023-05-18T10:15:25.833Z,17.90
2023-05-18T10:17:56.939Z,17.92
2023-05-18T10:20:26.881Z,17.96
2023-05-18T10:22:56.302Z,17.99
2023-05-18T10:25:26.087Z,18.01
2023-05-18T10:28:07.571Z,18.03
2023-05-18T10:30:34.991Z,18.05
2023-05-18T10:33:04.022Z,18.06
2023-05-18T10:35:33.999Z,18.11
2023-05-18T10:38:02.496Z,18.13
2023-05-18T10:40:29.866Z,18.18
2023-05-18T10:42:58.915Z,18.19
2023-05-18T10:45:26.917Z,18.24
2023-05-18T10:47:55.371Z,18.25
2023-05-18T10:50:26.135Z,18.31
2023-05-18T10:52:53.739Z,18.37
2023-05-18T10:55:21.249Z,18.42
2023-05-18T10:57:55.750Z,18.42
2023-05-18T11:00:22.784Z,18.44
2023-05-18T11:02:50.366Z,18.52
2023-05-18T11:05:24.476Z,18.54
2023-05-18T11:07:51.510Z,18.61
2023-05-18T11:10:18.465Z,18.62
2023-05-18T11:12:45.484Z,18.65
2023-05-18T11:15:12.494Z,18.68
2023-05-18T11:17:39.458Z,18.68
2023-05-18T11:20:06.318Z,18.71
2023-05-18T11:23:02.994Z,18.71
2023-05-18T11:25:32.782Z,18.72
2023-05-18T11:28:07.888Z,18.71
2023-05-18T11:30:34.925Z,18.68
2023-05-18T11:33:40.498Z,18.68
2023-05-18T11:36:12.338Z,18.68
2023-05-18T11:38:53.085Z,18.68
2023-05-18T11:41:29.480Z,18.70
2023-05-18T11:44:16.755Z,18.70
2023-05-18T11:47:01.591Z,18.73
2023-05-18T11:49:33.545Z,18.76
2023-05-18T11:52:18.087Z,18.79
2023-05-18T11:54:56.740Z,18.82
2023-05-18T11:57:40.530Z,18.84
2023-05-18T12:00:08.361Z,18.87
2023-05-18T12:02:35.352Z,18.88
2023-05-18T12:05:03.133Z,18.89
2023-05-18T12:07:32.572Z,18.90
2023-05-18T12:10:18.672Z,18.92
2023-05-18T12:12:49.018Z,18.93
2023-05-18T12:15:17.416Z,18.96
2023-05-18T12:17:46.541Z,18.99
2023-05-18T12:20:22.400Z,19.03
2023-05-18T12:22:52.328Z,19.06
2023-05-18T12:25:21.798Z,19.11
2023-05-18T12:27:48.984Z,19.12
2023-05-18T12:30:15.855Z,19.16
2023-05-18T12:32:51.236Z,19.18
2023-05-18T12:35:18.560Z,19.18
2023-05-18T12:37:46.358Z,19.18
2023-05-18T12:40:17.677Z,19.19
2023-05-18T12:43:01.298Z,19.20
2023-05-18T12:45:35.291Z,19.22
2023-05-18T12:48:06.307Z,19.23
2023-05-18T12:50:33.265Z,19.26
2023-05-18T12:53:01.990Z,19.28
2023-05-18T12:55:31.082Z,19.29
2023-05-18T12:58:03.418Z,19.32
2023-05-18T13:00:37.383Z,19.34
2023-05-18T13:03:09.302Z,19.35
2023-05-18T13:05:37.437Z,19.36
2023-05-18T13:08:04.467Z,19.40
2023-05-18T13:10:32.911Z,19.41
2023-05-18T13:13:06.488Z,19.43
2023-05-18T13:15:37.690Z,19.41
2023-05-18T13:18:07.247Z,19.39
2023-05-18T13:20:41.930Z,19.34
2023-05-18T13:23:13.613Z,19.29
2023-05-18T13:25:41.028Z,19.28
2023-05-18T13:28:10.810Z,19.27
2023-05-18T13:30:38.635Z,19.29
2023-05-18T13:33:08.442Z,19.31
2023-05-18T13:35:40.776Z,19.31
2023-05-18T13:38:08.214Z,19.28
2023-05-18T13:40:35.097Z,19.27
2023-05-18T13:43:02.124Z,19.24
2023-05-18T13:45:31.076Z,19.21
2023-05-18T13:47:58.216Z,19.20
2023-05-18T13:50:26.482Z,19.21
2023-05-18T13:52:54.050Z,19.23
2023-05-18T13:55:21.196Z,19.25
2023-05-18T13:57:48.222Z,19.30
2023-05-18T14:00:17.263Z,19.33
2023-05-18T14:02:45.244Z,19.35
2023-05-18T14:05:13.067Z,19.37
2023-05-18T14:07:41.962Z,19.40
2023-05-18T14:10:10.673Z,19.41
2023-05-18T14:12:38.071Z,19.42
2023-05-18T14:15:05.568Z,19.44
2023-05-18T14:17:33.041Z,19.47
2023-05-18T14:20:00.254Z,19.50
2023-05-18T14:22:27.693Z,19.54
2023-05-18T14:24:54.639Z,19.56
2023-05-18T14:27:21.664Z,19.58
2023-05-18T14:29:49.901Z,19.60
2023-05-18T14:32:17.626Z,19.60
2023-05-18T14:34:44.529Z,19.62
2023-05-18T14:37:11.413Z,19.65
2023-05-18T14:39:39.235Z,19.69
2023-05-18T14:42:06.731Z,19.72
2023-05-18T14:44:33.694Z,19.73
2023-05-18T14:47:00.836Z,19.73
2023-05-18T14:49:27.979Z,19.73
2023-05-18T14:51:54.889Z,19.75
2023-05-18T14:54:22.556Z,19.77
2023-05-18T14:56:49.496Z,19.80
2023-05-18T14:59:16.488Z,19.84
2023-05-18T15:01:43.401Z,19.86
2023-05-18T15:04:10.583Z,19.90
2023-05-18T15:06:37.786Z,19.90
2023-05-18T15:09:06.511Z,19.89
2023-05-18T15:11:33.449Z,19.86
2023-05-18T15:14:00.265Z,19.84
2023-05-18T15:16:27.236Z,19.81
2023-05-18T15:18:54.182Z,19.81
2023-05-18T15:21:21.094Z,19.82
2023-05-18T15:23:47.913Z,19.81
2023-05-18T15:26:14.824Z,19.79
2023-05-18T15:28:43.588Z,19.78
2023-05-18T15:31:10.836Z,19.79
2023-05-18T15:33:42.173Z,19.77
2023-05-18T15:36:09.422Z,19.76
2023-05-18T15:38:36.419Z,19.74
2023-05-18T15:41:03.358Z,19.75
2023-05-18T15:43:31.271Z,19.74
2023-05-18T15:45:58.866Z,19.74
2023-05-18T15:48:26.067Z,19.74
2023-05-18T15:50:53.015Z,19.73
2023-05-18T15:53:19.973Z,19.71
2023-05-18T15:55:47.203Z,19.72
2023-05-18T15:58:14.902Z,19.70
2023-05-18T16:00:41.836Z,19.67
2023-05-18T16:03:08.812Z,19.67
2023-05-18T16:05:35.721Z,19.64
2023-05-18T16:08:02.684Z,19.62
2023-05-18T16:10:29.952Z,19.59
2023-05-18T16:13:00.635Z,19.55
2023-05-18T16:15:27.576Z,19.53
2023-05-18T16:17:54.848Z,19.51
2023-05-18T16:20:21.972Z,19.47
2023-05-18T16:22:49.466Z,19.43
2023-05-18T16:25:16.348Z,19.38
2023-05-18T16:27:43.400Z,19.34
2023-05-18T16:30:10.798Z,19.29
2023-05-18T16:32:37.887Z,19.26
2023-05-18T16:35:05.210Z,19.22
2023-05-18T16:37:32.112Z,19.19
2023-05-18T16:39:59.016Z,19.17
2023-05-18T16:42:26.121Z,19.16
2023-05-18T16:44:53.040Z,19.18
2023-05-18T16:47:19.920Z,19.20
2023-05-18T16:49:46.773Z,19.17
2023-05-18T16:52:15.977Z,19.15
2023-05-18T16:54:42.817Z,19.14
2023-05-18T16:57:13.236Z,19.12
2023-05-18T16:59:40.351Z,19.10
2023-05-18T17:02:10.090Z,19.08
2023-05-18T17:04:37.076Z,19.08
2023-05-18T17:07:03.984Z,19.08
2023-05-18T17:09:31.348Z,19.06
2023-05-18T17:11:58.252Z,19.03
2023-05-18T17:14:25.107Z,19.02
2023-05-18T17:16:53.013Z,19.00
2023-05-18T17:19:20.023Z,18.99
2023-05-18T17:21:46.911Z,18.96
2023-05-18T17:24:14.643Z,18.96
2023-05-18T17:26:41.630Z,18.95
2023-05-18T17:29:08.464Z,18.94
2023-05-18T17:31:35.465Z,18.94
2023-05-18T17:34:02.450Z,18.95
2023-05-18T17:36:29.387Z,18.93
2023-05-18T17:38:56.667Z,18.90
2023-05-18T17:41:26.015Z,18.90
2023-05-18T17:43:53.264Z,18.90
2023-05-18T17:46:20.200Z,18.90
2023-05-18T17:48:47.750Z,18.89
2023-05-18T17:51:15.508Z,18.88
2023-05-18T17:53:42.927Z,18.88
2023-05-18T17:56:12.970Z,18.88
2023-05-18T17:58:39.962Z,18.86
2023-05-18T18:01:10.823Z,18.86
2023-05-18T18:03:38.258Z,18.83
2023-05-18T18:06:05.471Z,18.82
2023-05-18T18:08:32.406Z,18.80
2023-05-18T18:10:59.394Z,18.78
2023-05-18T18:13:26.393Z,18.75
2023-05-18T18:15:53.621Z,18.72
2023-05-18T18:18:21.426Z,18.70
2023-05-18T18:20:48.341Z,18.68
2023-05-18T18:23:15.920Z,18.65
2023-05-18T18:25:44.192Z,18.62
2023-05-18T18:28:15.294Z,18.61
2023-05-18T18:30:44.568Z,18.58
2023-05-18T18:33:11.901Z,18.56
2023-05-18T18:35:39.000Z,18.55
2023-05-18T18:38:05.946Z,18.53
2023-05-18T18:40:34.352Z,18.52
2023-05-18T18:43:01.575Z,18.50
2023-05-18T18:45:30.249Z,18.47
2023-05-18T18:47:57.243Z,18.47
2023-05-18T18:50:24.698Z,18.45
2023-05-18T18:52:51.673Z,18.43
2023-05-18T18:55:18.965Z,18.41
2023-05-18T18:57:46.370Z,18.36
2023-05-18T19:00:15.035Z,18.36
2023-05-18T19:02:42.142Z,18.33
2023-05-18T19:05:09.577Z,18.30
2023-05-18T19:07:37.044Z,18.27
2023-05-18T19:10:04.670Z,18.22
2023-05-18T19:12:32.794Z,18.20
2023-05-18T19:14:59.647Z,18.17
2023-05-18T19:17:26.987Z,18.14
2023-05-18T19:19:53.954Z,18.11
2023-05-18T19:22:20.772Z,18.06
2023-05-18T19:24:47.688Z,18.04
2023-05-18T19:27:14.640Z,18.00
2023-05-18T19:29:41.530Z,17.96
2023-05-18T19:32:08.416Z,17.92
2023-05-18T19:34:35.752Z,17.89
2023-05-18T19:37:02.695Z,17.86
2023-05-18T19:39:29.520Z,17.80
2023-05-18T19:41:56.443Z,17.74
2023-05-18T19:44:23.300Z,17.69
2023-05-18T19:46:50.121Z,17.63
2023-05-18T19:49:17.022Z,17.59
2023-05-18T19:51:43.883Z,17.50
2023-05-18T19:54:10.734Z,17.48
2023-05-18T19:56:37.652Z,17.42
2023-05-18T19:59:04.531Z,17.41
2023-05-18T20:01:32.442Z,17.32
2023-05-18T20:04:00.302Z,17.32
2023-05-18T20:06:32.018Z,17.23
2023-05-18T20:08:59.234Z,17.20
2023-05-18T20:11:26.103Z,17.11
2023-05-18T20:13:52.987Z,17.13
2023-05-18T20:16:19.954Z,17.04
2023-05-18T20:18:47.400Z,16.94
2023-05-18T20:21:14.337Z,16.92
2023-05-18T20:23:41.909Z,16.84
2023-05-18T20:26:08.820Z,16.79
2023-05-18T20:28:35.913Z,16.80
2023-05-18T20:31:02.898Z,16.74
2023-05-18T20:33:30.408Z,16.68
2023-05-18T20:35:57.432Z,16.73
2023-05-18T20:38:26.036Z,16.67
2023-05-18T20:40:53.888Z,16.61
2023-05-18T20:43:21.459Z,16.60
2023-05-18T20:45:49.737Z,16.52
2023-05-18T20:48:24.684Z,16.56
2023-05-18T20:50:52.377Z,16.51
2023-05-18T20:53:19.672Z,16.43
2023-05-18T20:55:47.757Z,16.38
2023-05-18T20:58:15.370Z,16.37
2023-05-18T21:00:42.409Z,16.36
2023-05-18T21:03:09.507Z,16.33
2023-05-18T21:05:36.569Z,16.36
2023-05-18T21:08:03.623Z,16.32
2023-05-18T21:10:32.285Z,16.26
2023-05-18T21:12:59.383Z,16.26
2023-05-18T21:15:26.545Z,16.18
2023-05-18T21:17:53.488Z,16.22
2023-05-18T21:20:20.712Z,16.16
2023-05-18T21:22:47.592Z,16.20
2023-05-18T21:25:15.715Z,16.17
2023-05-18T21:27:42.566Z,16.10
2023-05-18T21:30:10.161Z,16.11
2023-05-18T21:32:37.104Z,16.10
2023-05-18T21:35:04.816Z,16.07
2023-05-18T21:37:31.705Z,16.05
2023-05-18T21:39:58.571Z,16.12
2023-05-18T21:42:25.394Z,16.02
2023-05-18T21:44:52.323Z,15.97
2023-05-18T21:47:19.254Z,15.94
2023-05-18T21:49:46.188Z,15.89
2023-05-18T21:52:15.530Z,15.85
2023-05-18T21:54:42.433Z,15.85
2023-05-18T21:57:09.347Z,15.85
2023-05-18T21:59:36.267Z,15.79
2023-05-18T22:02:03.177Z,15.83
2023-05-18T22:04:30.087Z,15.85
2023-05-18T22:06:56.957Z,15.77
2023-05-18T22:09:23.825Z,15.73
2023-05-18T22:11:50.711Z,15.73
2023-05-18T22:14:18.217Z,15.74
2023-05-18T22:16:45.442Z,15.77
2023-05-18T22:19:12.559Z,15.68
2023-05-18T22:21:39.621Z,15.70
2023-05-18T22:24:06.831Z,15.74
2023-05-18T22:26:33.700Z,15.69
2023-05-18T22:29:00.652Z,15.65
2023-05-18T22:31:28.327Z,15.64
2023-05-18T22:33:55.544Z,15.60
2023-05-18T22:36:22.567Z,15.57
2023-05-18T22:38:49.981Z,15.55
2023-05-18T22:41:17.381Z,15.40
2023-05-18T22:43:44.581Z,15.53
2023-05-18T22:46:11.914Z,15.52
2023-05-18T22:48:39.769Z,15.51
2023-05-18T22:51:06.793Z,15.57
2023-05-18T22:53:34.211Z,15.52
2023-05-18T22:56:01.145Z,15.42
2023-05-18T22:58:28.046Z,15.56
2023-05-18T23:00:54.912Z,15.49
2023-05-18T23:03:21.932Z,15.41
2023-05-18T23:05:48.837Z,15.39
2023-05-18T23:08:16.293Z,15.43
2023-05-18T23:10:44.550Z,15.44
2023-05-18T23:13:16.174Z,15.35
2023-05-18T23:15:43.326Z,15.24
2023-05-18T23:18:10.350Z,15.27
2023-05-18T23:20:38.806Z,15.26
2023-05-18T23:23:05.688Z,15.29
2023-05-18T23:25:32.624Z,15.22
2023-05-18T23:27:59.521Z,15.29
2023-05-18T23:30:26.480Z,15.21
2023-05-18T23:32:53.781Z,15.34
2023-05-18T23:35:21.066Z,15.27
2023-05-18T23:37:50.224Z,15.25
2023-05-18T23:40:19.232Z,15.28
2023-05-18T23:42:46.591Z,15.29
2023-05-18T23:45:14.283Z,15.19
2023-05-18T23:47:41.496Z,15.13
2023-05-18T23:50:08.812Z,15.15
2023-05-18T23:52:35.791Z,15.21
2023-05-18T23:55:04.322Z,15.24
2023-05-18T23:57:31.843Z,15.18
2023-05-18T23:59:58.967Z,15.07
